createdAt,value
2023-03-08T00:00:22.055Z,5.30
2023-03-08T00:01:22.226Z,5.26
2023-03-08T00:02:22.396Z,5.24
2023-03-08T00:03:22.585Z,5.26
2023-03-08T00:04:22.880Z,5.24
2023-03-08T00:05:22.916Z,5.23
2023-03-08T00:06:23.086Z,5.21
2023-03-08T00:07:23.280Z,5.18
2023-03-08T00:08:23.505Z,5.23
2023-03-08T00:09:23.647Z,5.18
2023-03-08T00:10:23.817Z,5.19
2023-03-08T00:11:23.979Z,5.18
2023-03-08T00:12:24.172Z,5.18
2023-03-08T00:13:24.357Z,5.16
2023-03-08T00:14:24.530Z,5.15
2023-03-08T00:15:24.692Z,5.09
2023-03-08T00:16:24.918Z,5.14
2023-03-08T00:17:25.052Z,5.09
2023-03-08T00:18:25.221Z,5.09
2023-03-08T00:19:25.410Z,5.14
2023-03-08T00:20:25.580Z,5.12
2023-03-08T00:21:25.830Z,5.12
2023-03-08T00:22:25.928Z,5.12
2023-03-08T00:23:26.113Z,5.14
2023-03-08T00:24:26.293Z,5.11
2023-03-08T00:25:26.454Z,5.08
2023-03-08T00:26:26.653Z,5.05
2023-03-08T00:27:26.814Z,5.08
2023-03-08T00:28:26.981Z,5.05
2023-03-08T00:29:27.212Z,5.05
2023-03-08T00:30:27.316Z,5.04
2023-03-08T00:31:27.569Z,5.01
2023-03-08T00:32:27.720Z,5.00
2023-03-08T00:33:27.825Z,4.94
2023-03-08T00:34:28.018Z,4.96
2023-03-08T00:35:28.242Z,4.93
2023-03-08T00:36:28.380Z,4.97
2023-03-08T00:37:28.563Z,4.93
2023-03-08T00:38:28.732Z,4.94
2023-03-08T00:39:28.906Z,4.91
2023-03-08T00:40:29.070Z,4.91
2023-03-08T00:41:29.279Z,4.90
2023-03-08T00:42:29.420Z,4.86
2023-03-08T00:43:29.590Z,4.89
2023-03-08T00:44:29.780Z,4.87
2023-03-08T00:45:29.935Z,4.91
2023-03-08T00:46:30.181Z,4.87
2023-03-08T00:47:30.291Z,4.83
2023-03-08T00:48:30.477Z,4.87
2023-03-08T00:49:30.648Z,4.83
2023-03-08T00:50:30.816Z,4.81
2023-03-08T00:51:31.052Z,4.81
2023-03-08T00:52:31.153Z,4.83
2023-03-08T00:53:31.346Z,4.82
2023-03-08T00:54:31.520Z,4.83
2023-03-08T00:55:31.684Z,4.83
2023-03-08T00:56:31.863Z,4.82
2023-03-08T00:57:32.024Z,4.81
2023-03-08T00:58:32.206Z,4.79
2023-03-08T00:59:32.381Z,4.78
2023-03-08T01:00:32.617Z,4.79
2023-03-08T01:01:32.747Z,4.76
2023-03-08T01:02:32.888Z,4.78
2023-03-08T01:03:33.043Z,4.76
2023-03-08T01:04:33.212Z,4.79
2023-03-08T01:05:33.401Z,4.78
2023-03-08T01:06:33.585Z,4.73
2023-03-08T01:07:33.724Z,4.78
2023-03-08T01:08:33.902Z,4.75
2023-03-08T01:09:34.073Z,4.72
2023-03-08T01:10:34.273Z,4.73
2023-03-08T01:11:34.410Z,4.71
2023-03-08T01:12:34.574Z,4.65
2023-03-08T01:13:34.759Z,4.71
2023-03-08T01:14:34.944Z,4.69
2023-03-08T01:15:35.111Z,4.68
2023-03-08T01:16:35.247Z,4.65
2023-03-08T01:17:35.420Z,4.68
2023-03-08T01:18:35.594Z,4.64
2023-03-08T01:19:35.777Z,4.61
2023-03-08T01:20:35.946Z,4.64
2023-03-08T01:21:36.114Z,4.58
2023-03-08T01:22:36.278Z,4.60
2023-03-08T01:23:36.464Z,4.61
2023-03-08T01:24:36.637Z,4.60
2023-03-08T01:25:36.852Z,4.57
2023-03-08T01:26:36.984Z,4.60
2023-03-08T01:27:37.176Z,4.58
2023-03-08T01:28:37.342Z,4.54
2023-03-08T01:29:37.508Z,4.51
2023-03-08T01:30:37.712Z,4.51
2023-03-08T01:31:37.889Z,4.53
2023-03-08T01:32:38.116Z,4.46
2023-03-08T01:33:38.201Z,4.48
2023-03-08T01:34:38.382Z,4.50
2023-03-08T01:35:38.587Z,4.43
2023-03-08T01:36:38.738Z,4.48
2023-03-08T01:37:38.898Z,4.46
2023-03-08T01:38:39.092Z,4.42
2023-03-08T01:39:39.248Z,4.40
2023-03-08T01:40:39.416Z,4.39
2023-03-08T01:41:39.619Z,4.36
2023-03-08T01:42:39.791Z,4.35
2023-03-08T01:43:39.949Z,4.36
2023-03-08T01:44:40.128Z,4.35
2023-03-08T01:45:40.308Z,4.30
2023-03-08T01:46:40.478Z,4.38
2023-03-08T01:47:40.658Z,4.33
2023-03-08T01:48:40.827Z,4.39
2023-03-08T01:49:40.997Z,4.33
2023-03-08T01:50:41.170Z,4.32
2023-03-08T01:51:41.381Z,4.35
2023-03-08T01:52:41.529Z,4.33
2023-03-08T01:53:41.687Z,4.32
2023-03-08T01:54:41.864Z,4.33
2023-03-08T01:55:42.052Z,4.36
2023-03-08T01:56:42.234Z,4.39
2023-03-08T01:57:42.377Z,4.30
2023-03-08T01:58:42.554Z,4.28
2023-03-08T01:59:42.741Z,4.32
2023-03-08T02:00:42.922Z,4.27
2023-03-08T02:01:43.113Z,4.27
2023-03-08T02:02:43.307Z,4.30
2023-03-08T02:03:43.428Z,4.25
2023-03-08T02:04:43.610Z,4.27
2023-03-08T02:05:43.797Z,4.25
2023-03-08T02:06:43.965Z,4.28
2023-03-08T02:07:44.140Z,4.27
2023-03-08T02:08:44.309Z,4.24
2023-03-08T02:09:44.473Z,4.27
2023-03-08T02:10:44.654Z,4.20
2023-03-08T02:11:44.843Z,4.25
2023-03-08T02:12:44.984Z,4.27
2023-03-08T02:13:45.162Z,4.24
2023-03-08T02:14:45.350Z,4.20
2023-03-08T02:15:45.552Z,4.17
2023-03-08T02:16:45.709Z,4.20
2023-03-08T02:17:45.902Z,4.19
2023-03-08T02:18:46.056Z,4.14
2023-03-08T02:19:46.255Z,4.14
2023-03-08T02:20:46.442Z,4.11
2023-03-08T02:21:46.608Z,4.11
2023-03-08T02:22:46.772Z,4.16
2023-03-08T02:23:46.942Z,4.11
2023-03-08T02:24:47.128Z,4.14
2023-03-08T02:25:47.317Z,4.13
2023-03-08T02:26:47.453Z,4.10
2023-03-08T02:27:47.649Z,4.06
2023-03-08T02:28:47.827Z,4.02
2023-03-08T02:29:48.020Z,4.05
2023-03-08T02:30:48.193Z,4.06
2023-03-08T02:31:48.356Z,4.06
2023-03-08T02:32:48.521Z,4.03
2023-03-08T02:33:48.713Z,4.05
2023-03-08T02:34:48.872Z,4.06
2023-03-08T02:35:49.081Z,4.05
2023-03-08T02:36:49.219Z,4.06
2023-03-08T02:37:49.383Z,4.05
2023-03-08T02:38:49.583Z,4.03
2023-03-08T02:39:49.765Z,4.03
2023-03-08T02:40:49.944Z,4.08
2023-03-08T02:41:50.096Z,4.05
2023-03-08T02:42:52.851Z,4.06
2023-03-08T02:43:50.449Z,4.03
2023-03-08T02:44:50.627Z,4.03
2023-03-08T02:45:50.817Z,4.02
2023-03-08T02:46:50.966Z,3.95
2023-03-08T02:47:51.143Z,4.01
2023-03-08T02:48:51.316Z,3.96
2023-03-08T02:49:51.483Z,3.99
2023-03-08T02:50:51.645Z,4.03
2023-03-08T02:51:51.836Z,3.99
2023-03-08T02:52:52.029Z,3.98
2023-03-08T02:53:52.228Z,3.99
2023-03-08T02:54:52.359Z,3.96
2023-03-08T02:55:52.535Z,3.98
2023-03-08T02:56:52.758Z,3.96
2023-03-08T02:57:52.917Z,3.95
2023-03-08T02:58:53.049Z,3.98
2023-03-08T02:59:53.236Z,4.01
2023-03-08T03:00:53.401Z,3.99
2023-03-08T03:01:53.625Z,3.99
2023-03-08T03:02:53.760Z,3.98
2023-03-08T03:03:53.940Z,3.98
2023-03-08T03:04:54.168Z,3.96
2023-03-08T03:05:54.295Z,3.93
2023-03-08T03:06:54.483Z,3.99
2023-03-08T03:07:54.660Z,3.99
2023-03-08T03:08:54.833Z,3.99
2023-03-08T03:09:55.013Z,3.98
2023-03-08T03:10:55.174Z,3.98
2023-03-08T03:11:55.375Z,3.93
2023-03-08T03:12:55.522Z,3.92
2023-03-08T03:13:55.699Z,3.88
2023-03-08T03:14:55.866Z,3.87
2023-03-08T03:15:56.049Z,3.92
2023-03-08T03:16:56.207Z,3.88
2023-03-08T03:17:56.357Z,3.88
2023-03-08T03:18:56.548Z,3.90
2023-03-08T03:19:56.717Z,3.90
2023-03-08T03:20:56.867Z,3.88
2023-03-08T03:21:57.037Z,3.90
2023-03-08T03:22:57.209Z,3.88
2023-03-08T03:23:57.382Z,3.88
2023-03-08T03:24:57.561Z,3.88
2023-03-08T03:25:57.757Z,3.88
2023-03-08T03:26:57.942Z,3.88
2023-03-08T03:27:58.096Z,3.88
2023-03-08T03:28:58.271Z,3.88
2023-03-08T03:29:58.460Z,3.88
2023-03-08T03:30:58.655Z,3.90
2023-03-08T03:31:58.834Z,3.92
2023-03-08T03:32:58.981Z,3.88
2023-03-08T03:33:59.162Z,3.88
2023-03-08T03:34:59.352Z,3.88
2023-03-08T03:35:59.545Z,3.88
2023-03-08T03:36:59.656Z,3.88
2023-03-08T03:37:59.834Z,3.95
2023-03-08T03:39:00.040Z,3.96
2023-03-08T03:40:00.196Z,3.98
2023-03-08T03:41:00.364Z,4.01
2023-03-08T03:42:00.534Z,3.96
2023-03-08T03:43:00.715Z,3.96
2023-03-08T03:44:00.869Z,3.96
2023-03-08T03:45:01.067Z,3.95
2023-03-08T03:46:01.258Z,3.95
2023-03-08T03:47:01.407Z,3.95
2023-03-08T03:48:01.577Z,3.95
2023-03-08T03:49:01.784Z,3.96
2023-03-08T03:50:01.970Z,4.01
2023-03-08T03:51:02.134Z,3.99
2023-03-08T03:52:02.347Z,4.05
2023-03-08T03:53:02.510Z,4.05
2023-03-08T03:54:02.698Z,4.01
2023-03-08T03:55:02.904Z,4.05
2023-03-08T03:56:03.032Z,4.05
2023-03-08T03:57:03.213Z,4.03
2023-03-08T03:58:03.408Z,4.06
2023-03-08T03:59:03.552Z,4.03
2023-03-08T04:00:03.762Z,4.05
2023-03-08T04:01:03.885Z,4.03
2023-03-08T04:02:04.090Z,4.01
2023-03-08T04:03:04.321Z,4.03
2023-03-08T04:04:04.542Z,4.02
2023-03-08T04:05:04.627Z,4.02
2023-03-08T04:06:04.789Z,3.99
2023-03-08T04:07:04.961Z,3.99
2023-03-08T04:08:05.149Z,4.05
2023-03-08T04:09:05.346Z,3.99
2023-03-08T04:10:05.494Z,3.96
2023-03-08T04:11:05.670Z,3.95
2023-03-08T04:12:05.842Z,3.98
2023-03-08T04:13:06.026Z,3.93
2023-03-08T04:14:06.185Z,3.95
2023-03-08T04:15:06.351Z,3.96
2023-03-08T04:16:06.559Z,3.95
2023-03-08T04:17:06.693Z,3.99
2023-03-08T04:18:06.860Z,4.01
2023-03-08T04:19:07.041Z,3.99
2023-03-08T04:20:07.235Z,3.99
2023-03-08T04:21:07.367Z,3.98
2023-03-08T04:22:07.557Z,4.02
2023-03-08T04:23:07.725Z,4.06
2023-03-08T04:24:07.900Z,4.02
2023-03-08T04:25:08.078Z,4.06
2023-03-08T04:26:08.272Z,4.03
2023-03-08T04:27:08.438Z,3.99
2023-03-08T04:28:08.601Z,4.02
2023-03-08T04:29:08.771Z,4.03
2023-03-08T04:30:08.974Z,4.01
2023-03-08T04:31:09.264Z,4.02
2023-03-08T04:32:09.332Z,4.02
2023-03-08T04:33:09.478Z,4.01
2023-03-08T04:34:09.647Z,3.98
2023-03-08T04:35:09.842Z,4.03
2023-03-08T04:36:09.981Z,4.02
2023-03-08T04:37:10.159Z,4.01
2023-03-08T04:38:10.317Z,3.99
2023-03-08T04:39:10.510Z,4.01
2023-03-08T04:40:10.708Z,3.98
2023-03-08T04:41:10.878Z,4.01
2023-03-08T04:42:11.052Z,4.02
2023-03-08T04:43:11.224Z,4.02
2023-03-08T04:44:11.389Z,3.99
2023-03-08T04:45:11.593Z,4.06
2023-03-08T04:46:11.809Z,4.03
2023-03-08T04:47:11.892Z,4.02
2023-03-08T04:48:12.064Z,4.05
2023-03-08T04:49:12.244Z,4.08
2023-03-08T04:50:12.431Z,4.05
2023-03-08T04:51:12.616Z,4.06
2023-03-08T04:52:12.769Z,4.06
2023-03-08T04:53:12.935Z,4.06
2023-03-08T04:54:13.114Z,4.05
2023-03-08T04:55:13.306Z,4.08
2023-03-08T04:56:13.488Z,4.05
2023-03-08T04:57:13.655Z,4.06
2023-03-08T04:58:13.816Z,4.06
2023-03-08T04:59:13.988Z,4.03
2023-03-08T05:00:14.196Z,4.05
2023-03-08T05:01:14.352Z,4.06
2023-03-08T05:02:14.538Z,4.05
2023-03-08T05:03:14.704Z,4.03
2023-03-08T05:04:14.867Z,4.01
2023-03-08T05:05:15.144Z,4.02
2023-03-08T05:06:15.229Z,4.02
2023-03-08T05:07:15.395Z,4.06
2023-03-08T05:08:15.572Z,4.05
2023-03-08T05:09:15.736Z,4.05
2023-03-08T05:10:15.924Z,4.01
2023-03-08T05:11:16.096Z,3.99
2023-03-08T05:12:16.262Z,3.98
2023-03-08T05:13:16.453Z,3.98
2023-03-08T05:14:16.616Z,3.98
2023-03-08T05:15:16.791Z,3.93
2023-03-08T05:16:17.005Z,3.99
2023-03-08T05:17:17.141Z,3.93
2023-03-08T05:18:17.302Z,3.98
2023-03-08T05:19:17.487Z,3.95
2023-03-08T05:20:17.640Z,3.92
2023-03-08T05:21:17.821Z,3.93
2023-03-08T05:22:18.011Z,3.92
2023-03-08T05:23:18.172Z,3.93
2023-03-08T05:24:18.333Z,3.96
2023-03-08T05:25:18.582Z,3.93
2023-03-08T05:26:18.684Z,3.93
2023-03-08T05:27:18.892Z,3.92
2023-03-08T05:28:19.026Z,3.88
2023-03-08T05:29:19.235Z,3.92
2023-03-08T05:30:19.398Z,3.90
2023-03-08T05:31:19.656Z,3.90
2023-03-08T05:32:20.750Z,3.87
2023-03-08T05:33:19.916Z,3.90
2023-03-08T05:34:20.100Z,3.92
2023-03-08T05:35:20.281Z,3.88
2023-03-08T05:36:20.480Z,3.90
2023-03-08T05:37:20.655Z,3.87
2023-03-08T05:38:20.822Z,3.90
2023-03-08T05:39:21.050Z,3.85
2023-03-08T05:40:21.164Z,3.85
2023-03-08T05:41:21.356Z,3.93
2023-03-08T05:42:21.548Z,3.87
2023-03-08T05:43:21.706Z,3.88
2023-03-08T05:44:21.875Z,3.85
2023-03-08T05:45:22.056Z,3.88
2023-03-08T05:46:22.261Z,3.85
2023-03-08T05:47:22.395Z,3.92
2023-03-08T05:48:22.577Z,3.87
2023-03-08T05:49:22.706Z,3.92
2023-03-08T05:50:22.868Z,3.90
2023-03-08T05:51:23.085Z,3.93
2023-03-08T05:52:23.225Z,3.85
2023-03-08T05:53:23.404Z,3.85
2023-03-08T05:54:23.577Z,3.90
2023-03-08T05:55:23.845Z,3.85
2023-03-08T05:56:23.906Z,3.85
2023-03-08T05:57:24.083Z,3.84
2023-03-08T05:58:24.228Z,3.88
2023-03-08T05:59:24.399Z,3.85
2023-03-08T06:00:24.592Z,3.88
2023-03-08T06:01:24.776Z,3.85
2023-03-08T06:02:24.942Z,3.85
2023-03-08T06:03:25.180Z,3.88
2023-03-08T06:04:25.270Z,3.88
2023-03-08T06:05:25.434Z,3.88
2023-03-08T06:06:25.655Z,3.84
2023-03-08T06:07:25.814Z,3.84
2023-03-08T06:08:25.989Z,3.90
2023-03-08T06:09:26.179Z,3.90
2023-03-08T06:10:26.313Z,3.88
2023-03-08T06:11:26.527Z,3.92
2023-03-08T06:12:26.673Z,3.90
2023-03-08T06:13:26.853Z,3.90
2023-03-08T06:14:27.064Z,3.96
2023-03-08T06:15:27.215Z,3.98
2023-03-08T06:16:27.491Z,3.99
2023-03-08T06:17:27.579Z,3.96
2023-03-08T06:18:27.753Z,3.98
2023-03-08T06:19:27.930Z,3.99
2023-03-08T06:20:28.127Z,4.02
2023-03-08T06:21:28.302Z,3.98
2023-03-08T06:22:28.438Z,4.03
2023-03-08T06:23:28.604Z,4.02
2023-03-08T06:24:28.780Z,4.06
2023-03-08T06:25:28.954Z,4.03
2023-03-08T06:26:29.188Z,3.99
2023-03-08T06:27:29.294Z,4.02
2023-03-08T06:28:29.465Z,4.03
2023-03-08T06:29:29.641Z,4.02
2023-03-08T06:30:29.852Z,4.06
2023-03-08T06:31:30.033Z,4.08
2023-03-08T06:32:30.222Z,4.06
2023-03-08T06:33:30.372Z,4.10
2023-03-08T06:34:30.513Z,4.05
2023-03-08T06:35:30.739Z,4.08
2023-03-08T06:36:30.864Z,4.13
2023-03-08T06:37:31.058Z,4.13
2023-03-08T06:38:33.291Z,4.16
2023-03-08T06:39:31.396Z,4.16
2023-03-08T06:40:31.566Z,4.16
2023-03-08T06:41:31.737Z,4.17
2023-03-08T06:42:41.112Z,4.19
2023-03-08T06:43:33.107Z,4.20
2023-03-08T06:44:32.280Z,4.20
2023-03-08T06:45:32.488Z,4.19
2023-03-08T06:46:32.705Z,4.25
2023-03-08T06:47:32.817Z,4.28
2023-03-08T06:48:32.982Z,4.32
2023-03-08T06:49:33.153Z,4.30
2023-03-08T06:50:33.321Z,4.35
2023-03-08T06:51:33.514Z,4.36
2023-03-08T06:52:33.692Z,4.38
2023-03-08T06:53:33.828Z,4.42
2023-03-08T06:54:34.004Z,4.40
2023-03-08T06:55:34.187Z,4.40
2023-03-08T06:56:34.375Z,4.45
2023-03-08T06:57:34.533Z,4.43
2023-03-08T06:58:34.695Z,4.50
2023-03-08T06:59:34.884Z,4.51
2023-03-08T07:00:35.098Z,4.57
2023-03-08T07:01:35.290Z,4.58
2023-03-08T07:02:35.519Z,4.57
2023-03-08T07:03:35.568Z,4.58
2023-03-08T07:04:35.762Z,4.61
2023-03-08T07:05:35.918Z,4.65
2023-03-08T07:06:36.098Z,4.69
2023-03-08T07:07:36.268Z,4.69
2023-03-08T07:08:36.426Z,4.71
2023-03-08T07:09:36.603Z,4.76
2023-03-08T07:10:36.768Z,4.75
2023-03-08T07:11:36.938Z,4.78
2023-03-08T07:12:37.128Z,4.79
2023-03-08T07:13:37.300Z,4.83
2023-03-08T07:14:37.476Z,4.89
2023-03-08T07:15:37.698Z,4.91
2023-03-08T07:16:37.819Z,4.96
2023-03-08T07:17:38.018Z,4.99
2023-03-08T07:18:38.176Z,5.00
2023-03-08T07:19:38.360Z,5.00
2023-03-08T07:20:38.523Z,5.05
2023-03-08T07:21:38.698Z,5.05
2023-03-08T07:22:38.879Z,5.09
2023-03-08T07:23:39.047Z,5.12
2023-03-08T07:24:39.217Z,5.11
2023-03-08T07:25:39.398Z,5.18
2023-03-08T07:26:39.582Z,5.19
2023-03-08T07:27:39.748Z,5.23
2023-03-08T07:28:39.909Z,5.21
2023-03-08T07:29:40.141Z,5.24
2023-03-08T07:30:40.286Z,5.30
2023-03-08T07:31:40.487Z,5.29
2023-03-08T07:32:40.693Z,5.34
2023-03-08T07:33:40.780Z,5.39
2023-03-08T07:34:40.950Z,5.44
2023-03-08T07:35:41.214Z,5.45
2023-03-08T07:36:41.332Z,5.48
2023-03-08T07:37:41.516Z,5.54
2023-03-08T07:38:41.655Z,5.62
2023-03-08T07:39:41.827Z,5.69
2023-03-08T07:40:41.996Z,5.76
2023-03-08T07:41:42.186Z,5.85
2023-03-08T07:42:42.396Z,6.03
2023-03-08T07:43:42.548Z,6.22
2023-03-08T07:44:42.736Z,6.45
2023-03-08T07:45:42.915Z,6.64
2023-03-08T07:46:43.155Z,6.83
2023-03-08T07:47:43.284Z,7.10
2023-03-08T07:48:43.438Z,7.30
2023-03-08T07:49:43.616Z,7.52
2023-03-08T07:50:43.779Z,7.63
2023-03-08T07:51:43.968Z,7.85
2023-03-08T07:52:44.189Z,8.04
2023-03-08T07:53:44.334Z,8.17
2023-03-08T07:54:44.528Z,8.35
2023-03-08T07:55:44.708Z,8.51
2023-03-08T07:56:44.927Z,8.69
2023-03-08T07:57:45.069Z,8.81
2023-03-08T07:58:45.238Z,9.02
2023-03-08T07:59:45.394Z,9.12
2023-03-08T08:00:45.551Z,9.30
2023-03-08T08:01:45.756Z,9.44
2023-03-08T08:02:45.944Z,9.54
2023-03-08T08:03:46.136Z,9.64
2023-03-08T08:04:46.270Z,9.81
2023-03-08T08:05:46.460Z,9.90
2023-03-08T08:06:46.645Z,10.01
2023-03-08T08:07:46.793Z,10.21
2023-03-08T08:08:46.952Z,10.23
2023-03-08T08:09:47.117Z,10.34
2023-03-08T08:10:47.272Z,10.48
2023-03-08T08:11:47.446Z,10.51
2023-03-08T08:12:47.643Z,10.63
2023-03-08T08:13:47.768Z,10.69
2023-03-08T08:14:47.950Z,10.69
2023-03-08T08:15:48.227Z,10.74
2023-03-08T08:16:48.280Z,10.79
2023-03-08T08:17:48.453Z,10.80
2023-03-08T08:18:48.712Z,10.88
2023-03-08T08:19:48.803Z,10.84
2023-03-08T08:20:48.994Z,10.89
2023-03-08T08:21:49.179Z,10.87
2023-03-08T08:22:49.340Z,10.88
2023-03-08T08:23:49.497Z,10.88
2023-03-08T08:24:49.667Z,10.87
2023-03-08T08:25:49.863Z,10.88
2023-03-08T08:26:50.052Z,10.89
2023-03-08T08:27:50.205Z,10.89
2023-03-08T08:28:50.398Z,10.84
2023-03-08T08:29:50.589Z,10.89
2023-03-08T08:30:50.784Z,10.87
2023-03-08T08:31:51.008Z,10.88
2023-03-08T08:32:51.104Z,10.89
2023-03-08T08:33:51.291Z,10.91
2023-03-08T08:34:51.447Z,10.88
2023-03-08T08:35:51.664Z,10.91
2023-03-08T08:36:51.835Z,10.85
2023-03-08T08:37:51.965Z,10.91
2023-03-08T08:38:52.159Z,10.91
2023-03-08T08:39:52.352Z,10.91
2023-03-08T08:40:52.537Z,10.92
2023-03-08T08:41:52.726Z,10.96
2023-03-08T08:42:52.896Z,10.95
2023-03-08T08:43:53.119Z,10.95
2023-03-08T08:44:53.258Z,10.96
2023-03-08T08:45:53.544Z,10.99
2023-03-08T08:46:53.597Z,11.01
2023-03-08T08:47:53.777Z,11.06
2023-03-08T08:48:53.968Z,11.04
2023-03-08T08:49:54.148Z,11.07
2023-03-08T08:50:54.332Z,11.09
2023-03-08T08:51:54.466Z,11.09
2023-03-08T08:52:54.674Z,11.10
2023-03-08T08:53:54.798Z,11.16
2023-03-08T08:54:54.988Z,11.16
2023-03-08T08:55:55.195Z,11.21
2023-03-08T08:56:55.329Z,11.25
2023-03-08T08:57:55.513Z,11.25
2023-03-08T08:58:55.716Z,11.27
2023-03-08T08:59:55.842Z,11.35
2023-03-08T09:00:56.035Z,11.38
2023-03-08T09:01:56.171Z,11.41
2023-03-08T09:02:56.360Z,11.48
2023-03-08T09:03:56.579Z,11.51
2023-03-08T09:04:56.732Z,11.55
2023-03-08T09:05:56.920Z,11.59
2023-03-08T09:06:57.084Z,11.57
2023-03-08T09:07:57.213Z,11.59
2023-03-08T09:08:57.385Z,11.61
2023-03-08T09:09:57.548Z,11.65
2023-03-08T09:10:57.701Z,11.63
2023-03-08T09:11:57.896Z,11.68
2023-03-08T09:12:58.992Z,11.68
2023-03-08T09:13:58.203Z,11.71
2023-03-08T09:14:58.414Z,11.68
2023-03-08T09:15:58.579Z,11.72
2023-03-08T09:16:58.883Z,11.76
2023-03-08T09:17:58.908Z,11.80
2023-03-08T09:18:59.088Z,11.76
2023-03-08T09:19:59.280Z,11.81
2023-03-08T09:20:59.469Z,11.80
2023-03-08T09:21:59.628Z,11.81
2023-03-08T09:22:59.879Z,11.81
2023-03-08T09:24:00.004Z,11.84
2023-03-08T09:25:00.183Z,11.84
2023-03-08T09:26:02.343Z,11.90
2023-03-08T09:27:00.526Z,11.91
2023-03-08T09:28:00.677Z,11.94
2023-03-08T09:29:00.854Z,12.01
2023-03-08T09:30:01.028Z,12.05
2023-03-08T09:31:01.219Z,12.09
2023-03-08T09:32:01.413Z,12.09
2023-03-08T09:33:01.525Z,12.13
2023-03-08T09:34:01.727Z,12.21
2023-03-08T09:35:01.926Z,12.21
2023-03-08T09:36:02.105Z,12.26
2023-03-08T09:37:02.265Z,12.34
2023-03-08T09:38:02.421Z,12.42
2023-03-08T09:39:02.612Z,12.46
2023-03-08T09:40:02.773Z,12.53
2023-03-08T09:41:02.953Z,12.59
2023-03-08T09:42:03.081Z,12.72
2023-03-08T09:43:03.260Z,12.79
2023-03-08T09:44:03.427Z,12.90
2023-03-08T09:45:04.462Z,12.97
2023-03-08T09:46:03.791Z,13.05
2023-03-08T09:47:03.934Z,13.18
2023-03-08T09:48:04.156Z,13.23
2023-03-08T09:49:04.557Z,13.31
2023-03-08T09:50:04.453Z,13.34
2023-03-08T09:51:04.673Z,13.38
2023-03-08T09:52:04.798Z,13.43
2023-03-08T09:53:04.962Z,13.52
2023-03-08T09:54:05.132Z,13.59
2023-03-08T09:55:05.332Z,13.70
2023-03-08T09:56:05.508Z,13.77
2023-03-08T09:57:05.666Z,13.85
2023-03-08T09:58:05.790Z,13.95
2023-03-08T09:59:05.976Z,14.06
2023-03-08T10:00:06.128Z,14.16
2023-03-08T10:01:06.386Z,14.23
2023-03-08T10:02:06.452Z,14.34
2023-03-08T10:03:06.644Z,14.45
2023-03-08T10:04:06.792Z,14.55
2023-03-08T10:05:13.366Z,14.67
2023-03-08T10:06:08.139Z,14.77
2023-03-08T10:07:07.301Z,14.85
2023-03-08T10:08:07.449Z,14.88
2023-03-08T10:09:07.631Z,14.90
2023-03-08T10:10:07.783Z,14.90
2023-03-08T10:11:07.980Z,14.90
2023-03-08T10:12:13.034Z,14.90
2023-03-08T10:13:09.273Z,14.91
2023-03-08T10:14:08.450Z,14.91
2023-03-08T10:15:08.629Z,14.91
2023-03-08T10:16:08.805Z,14.91
2023-03-08T10:17:08.941Z,14.95
2023-03-08T10:18:09.096Z,14.91
2023-03-08T10:19:09.286Z,14.95
2023-03-08T10:20:09.477Z,14.96
2023-03-08T10:21:09.681Z,14.92
2023-03-08T10:22:09.854Z,14.96
2023-03-08T10:23:09.983Z,14.92
2023-03-08T10:24:10.144Z,14.88
2023-03-08T10:25:10.352Z,14.87
2023-03-08T10:26:10.534Z,14.87
2023-03-08T10:27:10.904Z,14.87
2023-03-08T10:28:10.860Z,14.81
2023-03-08T10:29:11.066Z,14.80
2023-03-08T10:30:11.211Z,14.72
2023-03-08T10:31:11.409Z,14.73
2023-03-08T10:32:11.564Z,14.67
2023-03-08T10:33:11.738Z,14.69
2023-03-08T10:34:11.915Z,14.62
2023-03-08T10:35:12.043Z,14.57
2023-03-08T10:36:12.211Z,14.52
2023-03-08T10:38:27.432Z,14.41
2023-03-08T10:39:27.623Z,14.33
2023-03-08T10:40:27.770Z,14.27
2023-03-08T10:41:27.962Z,14.27
2023-03-08T10:42:28.138Z,14.22
2023-03-08T10:43:28.292Z,14.23
2023-03-08T10:44:28.462Z,14.22
2023-03-08T10:45:28.654Z,14.26
2023-03-08T10:46:28.858Z,14.26
2023-03-08T10:47:28.984Z,14.25
2023-03-08T10:48:29.167Z,14.26
2023-03-08T10:49:29.351Z,14.29
2023-03-08T10:50:29.541Z,14.26
2023-03-08T10:51:29.700Z,14.32
2023-03-08T10:52:29.884Z,14.29
2023-03-08T10:53:30.060Z,14.30
2023-03-08T10:54:30.216Z,14.29
2023-03-08T10:55:30.409Z,14.29
2023-03-08T10:56:30.586Z,14.29
2023-03-08T10:57:30.695Z,14.27
2023-03-08T10:58:30.871Z,14.27
2023-03-08T10:59:31.085Z,14.30
2023-03-08T11:00:31.255Z,14.23
2023-03-08T11:01:31.387Z,14.25
2023-03-08T11:02:31.561Z,14.26
2023-03-08T11:03:31.717Z,14.25
2023-03-08T11:04:31.963Z,14.18
2023-03-08T11:05:32.045Z,14.22
2023-03-08T11:06:32.221Z,14.18
2023-03-08T11:07:32.397Z,14.23
2023-03-08T11:08:32.579Z,14.23
2023-03-08T11:09:32.765Z,14.18
2023-03-08T11:10:32.957Z,14.18
2023-03-08T11:11:33.129Z,14.16
2023-03-08T11:12:33.322Z,14.11
2023-03-08T11:13:33.500Z,14.10
2023-03-08T11:14:33.728Z,14.08
2023-03-08T11:15:33.866Z,14.04
2023-03-08T11:16:34.025Z,14.04
2023-03-08T11:17:34.192Z,14.01
2023-03-08T11:18:34.384Z,14.03
2023-03-08T11:19:34.548Z,14.03
2023-03-08T11:20:34.730Z,13.96
2023-03-08T11:21:34.881Z,13.96
2023-03-08T11:22:35.061Z,13.98
2023-03-08T11:23:35.218Z,13.96
2023-03-08T11:24:35.437Z,14.01
2023-03-08T11:25:35.562Z,13.98
2023-03-08T11:26:35.793Z,13.99
2023-03-08T11:27:35.921Z,14.01
2023-03-08T11:28:36.116Z,13.93
2023-03-08T11:29:36.254Z,13.96
2023-03-08T11:30:36.468Z,13.89
2023-03-08T11:31:36.576Z,13.91
2023-03-08T11:32:36.844Z,13.89
2023-03-08T11:33:37.123Z,13.86
2023-03-08T11:34:37.127Z,13.85
2023-03-08T11:35:37.333Z,13.80
2023-03-08T11:36:37.459Z,13.81
2023-03-08T11:37:37.651Z,13.78
2023-03-08T11:38:37.808Z,13.78
2023-03-08T11:39:38.067Z,13.73
2023-03-08T11:40:38.191Z,13.73
2023-03-08T11:41:38.351Z,13.70
2023-03-08T11:42:38.505Z,13.68
2023-03-08T11:43:38.658Z,13.64
2023-03-08T11:44:38.860Z,13.62
2023-03-08T11:45:39.027Z,13.58
2023-03-08T11:46:39.226Z,13.55
2023-03-08T11:47:39.371Z,13.53
2023-03-08T11:48:39.528Z,13.51
2023-03-08T11:49:39.708Z,13.52
2023-03-08T11:50:39.879Z,13.48
2023-03-08T11:51:40.048Z,13.49
2023-03-08T11:52:40.213Z,13.41
2023-03-08T11:53:42.262Z,13.41
2023-03-08T11:54:40.589Z,13.41
2023-03-08T11:55:40.837Z,13.35
2023-03-08T11:56:40.976Z,13.35
2023-03-08T11:57:41.162Z,13.31
2023-03-08T11:58:41.356Z,13.33
2023-03-08T11:59:41.520Z,13.30
2023-03-08T12:00:41.708Z,13.27
2023-03-08T12:01:41.831Z,13.27
2023-03-08T12:02:42.026Z,13.23
2023-03-08T12:03:42.219Z,13.28
2023-03-08T12:04:42.456Z,13.20
2023-03-08T12:05:42.620Z,13.19
2023-03-08T12:06:42.808Z,13.18
2023-03-08T12:07:42.886Z,13.13
2023-03-08T12:08:43.079Z,13.09
2023-03-08T12:09:43.247Z,13.11
2023-03-08T12:10:43.419Z,13.04
2023-03-08T12:11:43.580Z,13.04
2023-03-08T12:12:43.777Z,13.00
2023-03-08T12:13:43.941Z,13.00
2023-03-08T12:14:44.131Z,12.98
2023-03-08T12:15:44.419Z,12.95
2023-03-08T12:16:44.584Z,12.98
2023-03-08T12:17:44.667Z,12.94
2023-03-08T12:18:44.874Z,12.91
2023-03-08T12:19:45.030Z,12.87
2023-03-08T12:20:45.217Z,12.83
2023-03-08T12:21:45.397Z,12.86
2023-03-08T12:22:45.601Z,12.83
2023-03-08T12:23:45.774Z,12.75
2023-03-08T12:24:45.874Z,12.79
2023-03-08T12:25:46.040Z,12.69
2023-03-08T12:26:46.279Z,12.69
2023-03-08T12:27:46.455Z,12.66
2023-03-08T12:28:46.594Z,12.67
2023-03-08T12:29:46.794Z,12.66
2023-03-08T12:30:46.945Z,12.61
2023-03-08T12:31:47.323Z,12.61
2023-03-08T12:32:47.493Z,12.56
2023-03-08T12:33:47.582Z,12.59
2023-03-08T12:34:47.657Z,12.56
2023-03-08T12:35:47.861Z,12.53
2023-03-08T12:36:48.092Z,12.49
2023-03-08T12:37:48.150Z,12.53
2023-03-08T12:38:48.313Z,12.52
2023-03-08T12:39:48.554Z,12.45
2023-03-08T12:40:48.775Z,12.49
2023-03-08T12:41:48.922Z,12.44
2023-03-08T12:42:49.054Z,12.42
2023-03-08T12:43:49.306Z,12.41
2023-03-08T12:44:49.417Z,12.38
2023-03-08T12:45:49.662Z,12.41
2023-03-08T12:47:01.845Z,12.38
2023-03-08T12:47:50.984Z,12.35
2023-03-08T12:48:50.183Z,12.36
2023-03-08T12:49:50.418Z,12.34
2023-03-08T12:50:50.503Z,12.34
2023-03-08T12:51:50.644Z,12.27
2023-03-08T12:52:50.821Z,12.29
2023-03-08T12:53:50.945Z,12.24
2023-03-08T12:54:51.227Z,12.26
2023-03-08T12:55:51.247Z,12.24
2023-03-08T12:56:51.450Z,12.24
2023-03-08T12:57:51.610Z,12.24
2023-03-08T12:58:51.811Z,12.19
2023-03-08T12:59:51.993Z,12.17
2023-03-08T13:00:53.291Z,12.16
2023-03-08T13:01:52.327Z,12.20
2023-03-08T13:02:52.497Z,12.11
2023-03-08T13:03:52.661Z,12.06
2023-03-08T13:04:52.900Z,12.11
2023-03-08T13:05:53.018Z,12.06
2023-03-08T13:06:53.198Z,12.06
2023-03-08T13:07:53.385Z,12.04
2023-03-08T13:08:53.520Z,12.05
2023-03-08T13:09:53.694Z,12.01
2023-03-08T13:10:53.888Z,11.98
2023-03-08T13:11:54.053Z,12.01